Terminal Aerodrome Forecast
Issued by NWS Los Angeles, CA

Home | Current Version | Previous Version | Text Only | Print | Product List | Glossary On
Versions: 1 2 3 4 5 6 7 8 9 10 11 12 13 14 15 16 17 18 19 20 21 22 23 24 25
000
FTUS46 KLOX 251200 AAA
TAFSMX
TAF AMD
KSMX 251258Z 2513/2612 VRB03KT 2SM BR OVC003
     FM251600 VRB05KT 5SM HZ SCT012
     FM251800 31010KT P6SM SKC
     FM260300 VRB03KT P6SM SKC
     FM260500 VRB03KT P6SM OVC007
     FM260900 VRB03KT 2SM BR OVC005=

USA.gov is the U.S. government's official web portal to all federal, state and local government web resources and services.